Weather at Milas Bodrum International Airport

Public forecast

Using degrees Celsius for public forecast. Weather courtesy of forecast.io.

Current aviation weather report (METAR) for Milas Bodrum International Airport

Retrieved 2022/01/28 05:50 UTC (22 minutes ago):

LTFE 280550Z VRB01KT 9999 FEW035 SCT070 02/M03 Q1022 NOSIG RMK RWY10 VRB02KT

Aviation forecast (TAF) for Milas Bodrum International Airport

Retrieved 2022/01/28 06:03 UTC (9 minutes ago):

TAF LTFE 280440Z 2806/2906 VRB02KT 9999 SCT040 BECMG 2809/2812 CAVOK BECMG 2900/2903 SCT030 BKN090